sensor_id;sensor_type;location;lat;lon;timestamp;P1;durP1;ratioP1;P2;durP2;ratioP2
3333;SDS011;1679;50.392;8.008;2022-09-01T00:01:44;4.67;;;4.47;;
3333;SDS011;1679;50.392;8.008;2022-09-01T00:04:13;5.10;;;4.60;;
3333;SDS011;1679;50.392;8.008;2022-09-01T00:06:41;4.70;;;4.40;;
3333;SDS011;1679;50.392;8.008;2022-09-01T00:09:08;4.37;;;4.17;;
3333;SDS011;1679;50.392;8.008;2022-09-01T00:11:37;4.40;;;4.20;;
3333;SDS011;1679;50.392;8.008;2022-09-01T00:14:04;4.37;;;4.07;;
3333;SDS011;1679;50.392;8.008;2022-09-01T00:16:31;4.93;;;4.40;;
3333;SDS011;1679;50.392;8.008;2022-09-01T00:18:57;4.90;;;4.50;;
3333;SDS011;1679;50.392;8.008;2022-09-01T00:21:25;7.37;;;5.00;;
3333;SDS011;1679;50.392;8.008;2022-09-01T00:23:53;4.43;;;4.23;;
3333;SDS011;1679;50.392;8.008;2022-09-01T00:26:19;5.30;;;4.80;;
3333;SDS011;1679;50.392;8.008;2022-09-01T00:28:45;4.40;;;4.10;;
3333;SDS011;1679;50.392;8.008;2022-09-01T00:31:10;4.93;;;4.63;;
3333;SDS011;1679;50.392;8.008;2022-09-01T00:33:38;6.17;;;3.97;;
3333;SDS011;1679;50.392;8.008;2022-09-01T00:36:04;5.07;;;4.77;;
3333;SDS011;1679;50.392;8.008;2022-09-01T00:38:30;5.90;;;4.70;;
3333;SDS011;1679;50.392;8.008;2022-09-01T00:40:57;5.20;;;4.87;;
3333;SDS011;1679;50.392;8.008;2022-09-01T00:43:44;4.80;;;4.23;;
3333;SDS011;1679;50.392;8.008;2022-09-01T00:46:11;4.67;;;4.40;;
3333;SDS011;1679;50.392;8.008;2022-09-01T00:48:39;5.10;;;4.80;;
3333;SDS011;1679;50.392;8.008;2022-09-01T00:51:05;4.70;;;4.40;;
3333;SDS011;1679;50.392;8.008;2022-09-01T00:53:33;4.90;;;4.40;;
3333;SDS011;1679;50.392;8.008;2022-09-01T00:56:00;4.10;;;3.90;;
3333;SDS011;1679;50.392;8.008;2022-09-01T00:58:29;4.10;;;3.87;;
3333;SDS011;1679;50.392;8.008;2022-09-01T01:00:55;4.70;;;4.40;;
3333;SDS011;1679;50.392;8.008;2022-09-01T01:03:20;4.40;;;4.20;;
3333;SDS011;1679;50.392;8.008;2022-09-01T01:05:49;4.47;;;3.90;;
3333;SDS011;1679;50.392;8.008;2022-09-01T01:08:19;4.27;;;3.77;;
3333;SDS011;1679;50.392;8.008;2022-09-01T01:10:58;4.23;;;3.93;;
3333;SDS011;1679;50.392;8.008;2022-09-01T01:13:31;5.17;;;4.07;;
3333;SDS011;1679;50.392;8.008;2022-09-01T01:16:00;3.97;;;3.77;;
3333;SDS011;1679;50.392;8.008;2022-09-01T01:18:28;4.00;;;3.80;;
3333;SDS011;1679;50.392;8.008;2022-09-01T01:21:01;3.70;;;3.40;;
3333;SDS011;1679;50.392;8.008;2022-09-01T01:23:51;4.03;;;3.70;;
3333;SDS011;1679;50.392;8.008;2022-09-01T01:26:26;4.43;;;4.10;;
3333;SDS011;1679;50.392;8.008;2022-09-01T01:28:52;4.13;;;3.93;;
3333;SDS011;1679;50.392;8.008;2022-09-01T01:31:19;4.40;;;4.00;;
3333;SDS011;1679;50.392;8.008;2022-09-01T01:33:51;4.90;;;3.37;;
3333;SDS011;1679;50.392;8.008;2022-09-01T01:36:20;3.80;;;3.60;;
3333;SDS011;1679;50.392;8.008;2022-09-01T01:38:50;4.03;;;3.60;;
3333;SDS011;1679;50.392;8.008;2022-09-01T01:41:17;4.70;;;4.30;;
3333;SDS011;1679;50.392;8.008;2022-09-01T01:43:44;4.10;;;3.90;;
3333;SDS011;1679;50.392;8.008;2022-09-01T01:46:10;4.27;;;3.97;;
3333;SDS011;1679;50.392;8.008;2022-09-01T01:48:39;5.50;;;3.80;;
3333;SDS011;1679;50.392;8.008;2022-09-01T01:51:06;3.83;;;3.63;;
3333;SDS011;1679;50.392;8.008;2022-09-01T01:53:34;3.90;;;3.70;;
3333;SDS011;1679;50.392;8.008;2022-09-01T01:56:00;4.13;;;3.93;;
3333;SDS011;1679;50.392;8.008;2022-09-01T01:58:26;4.87;;;4.30;;
3333;SDS011;1679;50.392;8.008;2022-09-01T02:00:53;4.20;;;4.00;;
3333;SDS011;1679;50.392;8.008;2022-09-01T02:03:21;3.97;;;3.77;;
3333;SDS011;1679;50.392;8.008;2022-09-01T02:05:50;5.07;;;4.67;;
3333;SDS011;1679;50.392;8.008;2022-09-01T02:08:18;4.40;;;4.10;;
3333;SDS011;1679;50.392;8.008;2022-09-01T02:10:48;4.07;;;3.77;;
3333;SDS011;1679;50.392;8.008;2022-09-01T02:13:16;3.93;;;3.73;;
3333;SDS011;1679;50.392;8.008;2022-09-01T02:15:47;4.10;;;3.90;;
3333;SDS011;1679;50.392;8.008;2022-09-01T02:18:23;4.63;;;4.43;;
3333;SDS011;1679;50.392;8.008;2022-09-01T02:20:51;4.97;;;4.67;;
3333;SDS011;1679;50.392;8.008;2022-09-01T02:23:18;4.63;;;4.33;;
3333;SDS011;1679;50.392;8.008;2022-09-01T02:25:48;4.33;;;4.00;;
3333;SDS011;1679;50.392;8.008;2022-09-01T02:28:18;4.90;;;4.60;;
3333;SDS011;1679;50.392;8.008;2022-09-01T02:30:46;6.07;;;4.87;;
3333;SDS011;1679;50.392;8.008;2022-09-01T02:33:15;5.07;;;4.83;;
3333;SDS011;1679;50.392;8.008;2022-09-01T02:35:47;6.27;;;5.80;;
3333;SDS011;1679;50.392;8.008;2022-09-01T02:38:15;5.23;;;4.93;;
3333;SDS011;1679;50.392;8.008;2022-09-01T02:40:42;4.17;;;3.97;;
3333;SDS011;1679;50.392;8.008;2022-09-01T02:43:09;5.27;;;4.97;;
3333;SDS011;1679;50.392;8.008;2022-09-01T02:45:35;4.40;;;4.20;;
3333;SDS011;1679;50.392;8.008;2022-09-01T02:48:02;4.43;;;4.20;;
3333;SDS011;1679;50.392;8.008;2022-09-01T02:50:34;5.30;;;5.00;;
3333;SDS011;1679;50.392;8.008;2022-09-01T02:53:00;5.40;;;5.10;;
3333;SDS011;1679;50.392;8.008;2022-09-01T02:55:26;4.80;;;4.43;;
3333;SDS011;1679;50.392;8.008;2022-09-01T02:57:51;4.60;;;4.40;;
3333;SDS011;1679;50.392;8.008;2022-09-01T03:00:22;4.97;;;4.60;;
3333;SDS011;1679;50.392;8.008;2022-09-01T03:03:01;8.60;;;4.80;;
3333;SDS011;1679;50.392;8.008;2022-09-01T03:05:28;5.57;;;5.17;;
3333;SDS011;1679;50.392;8.008;2022-09-01T03:07:56;4.73;;;4.43;;
3333;SDS011;1679;50.392;8.008;2022-09-01T03:10:41;4.90;;;4.50;;
3333;SDS011;1679;50.392;8.008;2022-09-01T03:13:12;4.87;;;4.67;;
3333;SDS011;1679;50.392;8.008;2022-09-01T03:15:42;5.47;;;5.07;;
3333;SDS011;1679;50.392;8.008;2022-09-01T03:18:09;5.23;;;4.93;;
3333;SDS011;1679;50.392;8.008;2022-09-01T03:20:36;5.90;;;5.53;;
3333;SDS011;1679;50.392;8.008;2022-09-01T03:23:04;5.73;;;5.43;;
3333;SDS011;1679;50.392;8.008;2022-09-01T03:25:35;6.00;;;5.50;;
3333;SDS011;1679;50.392;8.008;2022-09-01T03:28:01;5.63;;;5.23;;
3333;SDS011;1679;50.392;8.008;2022-09-01T03:30:28;5.50;;;5.20;;
3333;SDS011;1679;50.392;8.008;2022-09-01T03:32:55;5.10;;;4.80;;
3333;SDS011;1679;50.392;8.008;2022-09-01T03:35:22;5.40;;;5.00;;
3333;SDS011;1679;50.392;8.008;2022-09-01T03:37:49;5.43;;;4.90;;
3333;SDS011;1679;50.392;8.008;2022-09-01T03:40:14;5.83;;;5.43;;
3333;SDS011;1679;50.392;8.008;2022-09-01T03:42:42;6.30;;;5.80;;
3333;SDS011;1679;50.392;8.008;2022-09-01T03:45:08;5.70;;;5.33;;
3333;SDS011;1679;50.392;8.008;2022-09-01T03:47:37;6.27;;;5.60;;
3333;SDS011;1679;50.392;8.008;2022-09-01T03:50:04;5.80;;;5.27;;
3333;SDS011;1679;50.392;8.008;2022-09-01T03:52:35;5.53;;;5.23;;
3333;SDS011;1679;50.392;8.008;2022-09-01T03:55:03;5.73;;;5.43;;
3333;SDS011;1679;50.392;8.008;2022-09-01T03:57:29;5.80;;;5.40;;
3333;SDS011;1679;50.392;8.008;2022-09-01T03:59:55;5.33;;;4.93;;
3333;SDS011;1679;50.392;8.008;2022-09-01T04:02:20;5.47;;;5.07;;
3333;SDS011;1679;50.392;8.008;2022-09-01T04:04:46;7.27;;;5.40;;
3333;SDS011;1679;50.392;8.008;2022-09-01T04:07:12;5.33;;;5.03;;
3333;SDS011;1679;50.392;8.008;2022-09-01T04:09:38;5.70;;;5.40;;
3333;SDS011;1679;50.392;8.008;2022-09-01T04:12:04;6.33;;;5.70;;
3333;SDS011;1679;50.392;8.008;2022-09-01T04:14:33;7.23;;;6.00;;
3333;SDS011;1679;50.392;8.008;2022-09-01T04:16:59;5.67;;;5.27;;
3333;SDS011;1679;50.392;8.008;2022-09-01T04:19:43;6.70;;;6.20;;
3333;SDS011;1679;50.392;8.008;2022-09-01T04:22:08;5.93;;;5.50;;
3333;SDS011;1679;50.392;8.008;2022-09-01T04:24:38;6.43;;;5.73;;
3333;SDS011;1679;50.392;8.008;2022-09-01T04:27:06;5.97;;;5.47;;
3333;SDS011;1679;50.392;8.008;2022-09-01T04:29:33;5.90;;;5.57;;
3333;SDS011;1679;50.392;8.008;2022-09-01T04:32:02;6.40;;;6.00;;
3333;SDS011;1679;50.392;8.008;2022-09-01T04:34:31;5.97;;;5.37;;
3333;SDS011;1679;50.392;8.008;2022-09-01T04:37:01;5.73;;;5.33;;
3333;SDS011;1679;50.392;8.008;2022-09-01T04:39:30;5.87;;;5.50;;
3333;SDS011;1679;50.392;8.008;2022-09-01T04:41:56;5.80;;;5.50;;
3333;SDS011;1679;50.392;8.008;2022-09-01T04:44:22;6.40;;;5.80;;
3333;SDS011;1679;50.392;8.008;2022-09-01T04:46:49;5.27;;;5.03;;
3333;SDS011;1679;50.392;8.008;2022-09-01T04:49:16;6.43;;;5.93;;
3333;SDS011;1679;50.392;8.008;2022-09-01T04:51:46;5.87;;;5.53;;
3333;SDS011;1679;50.392;8.008;2022-09-01T04:54:14;5.77;;;5.27;;
3333;SDS011;1679;50.392;8.008;2022-09-01T04:56:41;6.23;;;5.73;;
3333;SDS011;1679;50.392;8.008;2022-09-01T04:59:08;5.63;;;5.30;;
3333;SDS011;1679;50.392;8.008;2022-09-01T05:01:36;6.23;;;5.83;;
3333;SDS011;1679;50.392;8.008;2022-09-01T05:04:09;5.90;;;5.40;;
3333;SDS011;1679;50.392;8.008;2022-09-01T05:06:41;5.90;;;5.37;;
3333;SDS011;1679;50.392;8.008;2022-09-01T05:09:11;6.10;;;5.70;;
3333;SDS011;1679;50.392;8.008;2022-09-01T05:11:38;6.30;;;5.73;;
3333;SDS011;1679;50.392;8.008;2022-09-01T05:14:05;6.03;;;5.53;;
3333;SDS011;1679;50.392;8.008;2022-09-01T05:16:31;5.23;;;4.93;;
3333;SDS011;1679;50.392;8.008;2022-09-01T05:18:59;7.80;;;5.30;;
3333;SDS011;1679;50.392;8.008;2022-09-01T05:21:25;5.93;;;5.40;;
3333;SDS011;1679;50.392;8.008;2022-09-01T05:23:53;5.60;;;5.30;;
3333;SDS011;1679;50.392;8.008;2022-09-01T05:26:22;5.90;;;5.50;;
3333;SDS011;1679;50.392;8.008;2022-09-01T05:28:52;6.10;;;5.47;;
3333;SDS011;1679;50.392;8.008;2022-09-01T05:31:21;5.20;;;4.90;;
3333;SDS011;1679;50.392;8.008;2022-09-01T05:33:48;4.80;;;4.60;;
3333;SDS011;1679;50.392;8.008;2022-09-01T05:36:16;6.00;;;5.60;;
3333;SDS011;1679;50.392;8.008;2022-09-01T05:38:44;6.93;;;6.33;;
3333;SDS011;1679;50.392;8.008;2022-09-01T05:41:12;5.93;;;5.63;;
3333;SDS011;1679;50.392;8.008;2022-09-01T05:43:41;6.80;;;6.30;;
3333;SDS011;1679;50.392;8.008;2022-09-01T05:46:13;6.50;;;6.00;;
3333;SDS011;1679;50.392;8.008;2022-09-01T05:48:40;5.67;;;5.30;;
3333;SDS011;1679;50.392;8.008;2022-09-01T05:51:10;6.47;;;6.00;;
3333;SDS011;1679;50.392;8.008;2022-09-01T05:53:44;5.73;;;5.40;;
3333;SDS011;1679;50.392;8.008;2022-09-01T05:56:11;5.50;;;5.20;;
3333;SDS011;1679;50.392;8.008;2022-09-01T05:58:37;5.10;;;4.63;;
3333;SDS011;1679;50.392;8.008;2022-09-01T06:01:04;4.93;;;4.53;;
3333;SDS011;1679;50.392;8.008;2022-09-01T06:03:30;5.13;;;4.83;;
3333;SDS011;1679;50.392;8.008;2022-09-01T06:06:00;5.03;;;4.73;;
3333;SDS011;1679;50.392;8.008;2022-09-01T06:08:31;4.83;;;4.60;;
3333;SDS011;1679;50.392;8.008;2022-09-01T06:10:57;5.53;;;5.13;;
3333;SDS011;1679;50.392;8.008;2022-09-01T06:13:22;4.97;;;4.67;;
3333;SDS011;1679;50.392;8.008;2022-09-01T06:15:48;5.70;;;5.07;;
3333;SDS011;1679;50.392;8.008;2022-09-01T06:18:14;5.57;;;5.07;;
3333;SDS011;1679;50.392;8.008;2022-09-01T06:20:42;5.27;;;5.00;;
3333;SDS011;1679;50.392;8.008;2022-09-01T06:23:11;6.23;;;5.57;;
3333;SDS011;1679;50.392;8.008;2022-09-01T06:25:39;5.80;;;5.30;;
3333;SDS011;1679;50.392;8.008;2022-09-01T06:28:07;5.37;;;4.97;;
3333;SDS011;1679;50.392;8.008;2022-09-01T06:30:36;4.93;;;4.63;;
3333;SDS011;1679;50.392;8.008;2022-09-01T06:33:02;4.60;;;4.40;;
3333;SDS011;1679;50.392;8.008;2022-09-01T06:35:33;5.30;;;4.67;;
3333;SDS011;1679;50.392;8.008;2022-09-01T06:38:00;4.87;;;4.57;;
3333;SDS011;1679;50.392;8.008;2022-09-01T06:40:26;3.97;;;3.67;;
3333;SDS011;1679;50.392;8.008;2022-09-01T06:42:52;4.00;;;3.80;;
3333;SDS011;1679;50.392;8.008;2022-09-01T06:45:19;4.17;;;3.97;;
3333;SDS011;1679;50.392;8.008;2022-09-01T06:47:47;3.90;;;3.70;;
3333;SDS011;1679;50.392;8.008;2022-09-01T06:50:16;4.50;;;4.20;;
3333;SDS011;1679;50.392;8.008;2022-09-01T06:52:46;3.47;;;3.27;;
3333;SDS011;1679;50.392;8.008;2022-09-01T06:55:14;9.47;;;3.83;;
3333;SDS011;1679;50.392;8.008;2022-09-01T06:57:42;4.60;;;4.03;;
3333;SDS011;1679;50.392;8.008;2022-09-01T07:00:13;3.50;;;3.20;;
3333;SDS011;1679;50.392;8.008;2022-09-01T07:02:43;3.67;;;3.33;;
3333;SDS011;1679;50.392;8.008;2022-09-01T07:05:09;5.23;;;3.63;;
3333;SDS011;1679;50.392;8.008;2022-09-01T07:07:35;3.70;;;3.33;;
3333;SDS011;1679;50.392;8.008;2022-09-01T07:10:03;8.50;;;4.20;;
3333;SDS011;1679;50.392;8.008;2022-09-01T07:12:29;4.80;;;4.37;;
3333;SDS011;1679;50.392;8.008;2022-09-01T07:14:56;8.00;;;3.90;;
3333;SDS011;1679;50.392;8.008;2022-09-01T07:17:24;4.13;;;3.73;;
3333;SDS011;1679;50.392;8.008;2022-09-01T07:19:50;5.07;;;3.47;;
3333;SDS011;1679;50.392;8.008;2022-09-01T07:22:16;5.83;;;3.73;;
3333;SDS011;1679;50.392;8.008;2022-09-01T07:24:41;4.30;;;3.60;;
3333;SDS011;1679;50.392;8.008;2022-09-01T07:27:10;8.73;;;4.57;;
3333;SDS011;1679;50.392;8.008;2022-09-01T07:29:36;9.80;;;4.90;;
3333;SDS011;1679;50.392;8.008;2022-09-01T07:32:03;8.37;;;4.40;;
3333;SDS011;1679;50.392;8.008;2022-09-01T07:34:29;6.07;;;4.60;;
3333;SDS011;1679;50.392;8.008;2022-09-01T07:36:56;6.03;;;3.63;;
3333;SDS011;1679;50.392;8.008;2022-09-01T07:39:24;4.10;;;3.70;;
3333;SDS011;1679;50.392;8.008;2022-09-01T07:41:49;10.20;;;4.30;;
3333;SDS011;1679;50.392;8.008;2022-09-01T07:44:15;4.30;;;3.97;;
3333;SDS011;1679;50.392;8.008;2022-09-01T07:46:40;3.80;;;3.50;;
3333;SDS011;1679;50.392;8.008;2022-09-01T07:49:06;3.27;;;2.97;;
3333;SDS011;1679;50.392;8.008;2022-09-01T07:51:32;4.87;;;3.47;;
3333;SDS011;1679;50.392;8.008;2022-09-01T07:54:00;6.37;;;3.17;;
3333;SDS011;1679;50.392;8.008;2022-09-01T07:56:26;2.83;;;2.67;;
3333;SDS011;1679;50.392;8.008;2022-09-01T07:58:54;2.87;;;2.53;;
3333;SDS011;1679;50.392;8.008;2022-09-01T08:01:22;2.90;;;1.80;;
3333;SDS011;1679;50.392;8.008;2022-09-01T08:03:57;2.73;;;2.20;;
3333;SDS011;1679;50.392;8.008;2022-09-01T08:06:24;3.43;;;2.00;;
3333;SDS011;1679;50.392;8.008;2022-09-01T08:08:52;2.07;;;1.97;;
3333;SDS011;1679;50.392;8.008;2022-09-01T08:11:20;5.80;;;2.10;;
3333;SDS011;1679;50.392;8.008;2022-09-01T08:13:53;2.27;;;2.07;;
3333;SDS011;1679;50.392;8.008;2022-09-01T08:16:23;4.60;;;2.20;;
3333;SDS011;1679;50.392;8.008;2022-09-01T08:18:52;1.97;;;1.87;;
3333;SDS011;1679;50.392;8.008;2022-09-01T08:21:19;2.73;;;2.40;;
3333;SDS011;1679;50.392;8.008;2022-09-01T08:23:46;3.73;;;2.27;;
3333;SDS011;1679;50.392;8.008;2022-09-01T08:26:13;1.97;;;1.60;;
3333;SDS011;1679;50.392;8.008;2022-09-01T08:28:41;2.40;;;1.77;;
3333;SDS011;1679;50.392;8.008;2022-09-01T08:31:09;5.10;;;2.10;;
3333;SDS011;1679;50.392;8.008;2022-09-01T08:33:37;2.57;;;1.90;;
3333;SDS011;1679;50.392;8.008;2022-09-01T08:36:06;2.20;;;2.00;;
3333;SDS011;1679;50.392;8.008;2022-09-01T08:38:32;2.13;;;1.70;;
3333;SDS011;1679;50.392;8.008;2022-09-01T08:40:59;1.90;;;1.80;;
3333;SDS011;1679;50.392;8.008;2022-09-01T08:46:23;2.20;;;2.00;;
3333;SDS011;1679;50.392;8.008;2022-09-01T08:48:51;3.50;;;2.00;;
3333;SDS011;1679;50.392;8.008;2022-09-01T08:51:20;2.57;;;2.03;;
3333;SDS011;1679;50.392;8.008;2022-09-01T08:54:17;3.20;;;2.20;;
3333;SDS011;1679;50.392;8.008;2022-09-01T08:57:05;8.03;;;2.43;;
3333;SDS011;1679;50.392;8.008;2022-09-01T08:59:51;3.33;;;2.27;;
3333;SDS011;1679;50.392;8.008;2022-09-01T09:02:26;2.47;;;2.27;;
3333;SDS011;1679;50.392;8.008;2022-09-01T09:08:28;16.47;;;14.83;;
3333;SDS011;1679;50.392;8.008;2022-09-01T09:11:33;7.53;;;2.33;;
3333;SDS011;1679;50.392;8.008;2022-09-01T09:14:21;2.10;;;2.00;;
3333;SDS011;1679;50.392;8.008;2022-09-01T09:16:51;2.60;;;1.93;;
3333;SDS011;1679;50.392;8.008;2022-09-01T09:19:28;4.77;;;2.33;;
3333;SDS011;1679;50.392;8.008;2022-09-01T09:22:08;2.20;;;2.10;;
3333;SDS011;1679;50.392;8.008;2022-09-01T09:24:50;3.90;;;2.20;;
3333;SDS011;1679;50.392;8.008;2022-09-01T09:27:25;5.07;;;2.63;;
3333;SDS011;1679;50.392;8.008;2022-09-01T09:29:55;2.80;;;2.47;;
3333;SDS011;1679;50.392;8.008;2022-09-01T09:35:31;2.27;;;2.13;;
3333;SDS011;1679;50.392;8.008;2022-09-01T09:40:56;2.70;;;2.50;;
3333;SDS011;1679;50.392;8.008;2022-09-01T09:43:25;5.87;;;2.70;;
3333;SDS011;1679;50.392;8.008;2022-09-01T09:51:35;2.57;;;2.37;;
3333;SDS011;1679;50.392;8.008;2022-09-01T09:56:38;3.90;;;2.93;;
3333;SDS011;1679;50.392;8.008;2022-09-01T09:59:15;6.47;;;3.33;;
3333;SDS011;1679;50.392;8.008;2022-09-01T10:01:45;4.03;;;3.20;;
3333;SDS011;1679;50.392;8.008;2022-09-01T10:04:30;3.40;;;3.20;;
3333;SDS011;1679;50.392;8.008;2022-09-01T10:06:58;3.20;;;2.90;;
3333;SDS011;1679;50.392;8.008;2022-09-01T10:11:56;3.50;;;3.20;;
3333;SDS011;1679;50.392;8.008;2022-09-01T10:16:55;4.20;;;3.03;;
3333;SDS011;1679;50.392;8.008;2022-09-01T10:19:26;2.83;;;2.63;;
3333;SDS011;1679;50.392;8.008;2022-09-01T10:21:54;4.83;;;3.17;;
3333;SDS011;1679;50.392;8.008;2022-09-01T10:24:25;6.87;;;3.30;;
3333;SDS011;1679;50.392;8.008;2022-09-01T10:26:56;3.00;;;2.60;;
3333;SDS011;1679;50.392;8.008;2022-09-01T10:31:53;3.80;;;3.50;;
3333;SDS011;1679;50.392;8.008;2022-09-01T10:34:20;3.50;;;3.10;;
3333;SDS011;1679;50.392;8.008;2022-09-01T10:36:47;3.17;;;2.97;;
3333;SDS011;1679;50.392;8.008;2022-09-01T10:39:14;4.30;;;3.03;;
3333;SDS011;1679;50.392;8.008;2022-09-01T10:44:17;4.93;;;3.10;;
3333;SDS011;1679;50.392;8.008;2022-09-01T10:46:45;3.10;;;2.90;;
3333;SDS011;1679;50.392;8.008;2022-09-01T10:49:12;3.57;;;3.27;;
3333;SDS011;1679;50.392;8.008;2022-09-01T10:51:46;3.90;;;2.97;;
3333;SDS011;1679;50.392;8.008;2022-09-01T10:54:48;3.37;;;3.07;;
3333;SDS011;1679;50.392;8.008;2022-09-01T10:57:27;4.60;;;3.10;;
3333;SDS011;1679;50.392;8.008;2022-09-01T11:03:14;4.70;;;2.90;;
3333;SDS011;1679;50.392;8.008;2022-09-01T11:10:54;3.10;;;2.90;;
3333;SDS011;1679;50.392;8.008;2022-09-01T11:16:23;3.10;;;2.90;;
3333;SDS011;1679;50.392;8.008;2022-09-01T11:18:55;3.00;;;2.80;;
3333;SDS011;1679;50.392;8.008;2022-09-01T11:21:40;6.10;;;3.27;;
3333;SDS011;1679;50.392;8.008;2022-09-01T11:27:02;3.43;;;3.17;;
3333;SDS011;1679;50.392;8.008;2022-09-01T11:32:18;3.27;;;2.97;;
3333;SDS011;1679;50.392;8.008;2022-09-01T11:34:48;3.03;;;2.83;;
3333;SDS011;1679;50.392;8.008;2022-09-01T11:37:19;2.80;;;2.60;;
3333;SDS011;1679;50.392;8.008;2022-09-01T11:39:51;2.87;;;2.53;;
3333;SDS011;1679;50.392;8.008;2022-09-01T11:45:21;2.50;;;2.40;;
3333;SDS011;1679;50.392;8.008;2022-09-01T11:48:04;3.80;;;2.80;;
3333;SDS011;1679;50.392;8.008;2022-09-01T11:50:34;2.50;;;2.40;;
3333;SDS011;1679;50.392;8.008;2022-09-01T11:53:03;4.27;;;2.60;;
3333;SDS011;1679;50.392;8.008;2022-09-01T11:55:44;2.70;;;2.60;;
3333;SDS011;1679;50.392;8.008;2022-09-01T12:01:10;4.90;;;2.93;;
3333;SDS011;1679;50.392;8.008;2022-09-01T12:03:47;2.50;;;2.40;;
3333;SDS011;1679;50.392;8.008;2022-09-01T12:06:25;2.47;;;2.27;;
3333;SDS011;1679;50.392;8.008;2022-09-01T12:08:57;2.40;;;2.20;;
3333;SDS011;1679;50.392;8.008;2022-09-01T12:11:30;2.33;;;2.23;;
3333;SDS011;1679;50.392;8.008;2022-09-01T12:14:30;6.10;;;2.60;;
3333;SDS011;1679;50.392;8.008;2022-09-01T12:17:00;2.93;;;2.27;;
3333;SDS011;1679;50.392;8.008;2022-09-01T12:19:30;2.80;;;2.70;;
3333;SDS011;1679;50.392;8.008;2022-09-01T12:22:20;3.10;;;2.17;;
3333;SDS011;1679;50.392;8.008;2022-09-01T12:24:47;2.17;;;2.07;;
3333;SDS011;1679;50.392;8.008;2022-09-01T12:27:19;2.27;;;2.10;;
3333;SDS011;1679;50.392;8.008;2022-09-01T12:29:48;2.17;;;2.07;;
3333;SDS011;1679;50.392;8.008;2022-09-01T12:32:15;1.80;;;1.70;;
3333;SDS011;1679;50.392;8.008;2022-09-01T12:34:45;1.87;;;1.77;;
3333;SDS011;1679;50.392;8.008;2022-09-01T12:37:24;2.40;;;2.30;;
3333;SDS011;1679;50.392;8.008;2022-09-01T12:40:00;2.00;;;1.90;;
3333;SDS011;1679;50.392;8.008;2022-09-01T12:42:28;2.10;;;2.00;;
3333;SDS011;1679;50.392;8.008;2022-09-01T12:45:07;2.30;;;2.10;;
3333;SDS011;1679;50.392;8.008;2022-09-01T12:52:32;1.97;;;1.87;;
3333;SDS011;1679;50.392;8.008;2022-09-01T13:00:07;3.87;;;2.40;;
3333;SDS011;1679;50.392;8.008;2022-09-01T13:02:40;3.63;;;2.40;;
3333;SDS011;1679;50.392;8.008;2022-09-01T13:07:54;2.90;;;2.30;;
3333;SDS011;1679;50.392;8.008;2022-09-01T13:10:22;3.13;;;2.60;;
3333;SDS011;1679;50.392;8.008;2022-09-01T13:12:51;5.03;;;2.33;;
3333;SDS011;1679;50.392;8.008;2022-09-01T13:15:18;2.50;;;2.37;;
3333;SDS011;1679;50.392;8.008;2022-09-01T13:17:43;3.13;;;2.40;;
3333;SDS011;1679;50.392;8.008;2022-09-01T13:20:10;2.33;;;2.23;;
3333;SDS011;1679;50.392;8.008;2022-09-01T13:22:36;2.30;;;2.10;;
3333;SDS011;1679;50.392;8.008;2022-09-01T13:25:05;2.63;;;2.30;;
3333;SDS011;1679;50.392;8.008;2022-09-01T13:27:32;2.67;;;2.13;;
3333;SDS011;1679;50.392;8.008;2022-09-01T13:29:58;2.57;;;2.37;;
3333;SDS011;1679;50.392;8.008;2022-09-01T13:32:23;2.40;;;2.20;;
3333;SDS011;1679;50.392;8.008;2022-09-01T13:34:49;2.17;;;2.07;;
3333;SDS011;1679;50.392;8.008;2022-09-01T13:37:16;2.40;;;2.20;;
3333;SDS011;1679;50.392;8.008;2022-09-01T13:39:43;3.23;;;2.93;;
3333;SDS011;1679;50.392;8.008;2022-09-01T13:42:12;3.00;;;2.20;;
3333;SDS011;1679;50.392;8.008;2022-09-01T13:44:38;2.40;;;2.30;;
3333;SDS011;1679;50.392;8.008;2022-09-01T13:47:03;2.30;;;2.20;;
3333;SDS011;1679;50.392;8.008;2022-09-01T13:49:29;2.40;;;2.20;;
3333;SDS011;1679;50.392;8.008;2022-09-01T13:51:55;2.77;;;2.57;;
3333;SDS011;1679;50.392;8.008;2022-09-01T13:54:20;2.43;;;2.23;;
3333;SDS011;1679;50.392;8.008;2022-09-01T13:56:46;2.50;;;2.40;;
3333;SDS011;1679;50.392;8.008;2022-09-01T13:59:13;3.40;;;2.23;;
3333;SDS011;1679;50.392;8.008;2022-09-01T14:01:38;3.00;;;2.80;;
3333;SDS011;1679;50.392;8.008;2022-09-01T14:04:06;2.63;;;2.40;;
3333;SDS011;1679;50.392;8.008;2022-09-01T14:06:32;4.50;;;1.97;;
3333;SDS011;1679;50.392;8.008;2022-09-01T14:08:57;2.70;;;2.50;;
3333;SDS011;1679;50.392;8.008;2022-09-01T14:11:23;5.37;;;2.00;;
3333;SDS011;1679;50.392;8.008;2022-09-01T14:13:51;2.30;;;2.10;;
3333;SDS011;1679;50.392;8.008;2022-09-01T14:16:16;3.10;;;2.73;;
3333;SDS011;1679;50.392;8.008;2022-09-01T14:18:42;2.87;;;2.57;;
3333;SDS011;1679;50.392;8.008;2022-09-01T14:21:14;3.13;;;2.60;;
3333;SDS011;1679;50.392;8.008;2022-09-01T14:23:41;2.50;;;2.40;;
3333;SDS011;1679;50.392;8.008;2022-09-01T14:26:08;2.33;;;2.23;;
3333;SDS011;1679;50.392;8.008;2022-09-01T14:28:35;3.93;;;2.27;;
3333;SDS011;1679;50.392;8.008;2022-09-01T14:31:06;4.20;;;2.57;;
3333;SDS011;1679;50.392;8.008;2022-09-01T14:33:33;2.20;;;2.10;;
3333;SDS011;1679;50.392;8.008;2022-09-01T14:35:59;3.17;;;2.60;;
3333;SDS011;1679;50.392;8.008;2022-09-01T14:38:24;4.00;;;2.40;;
3333;SDS011;1679;50.392;8.008;2022-09-01T14:40:50;2.30;;;2.20;;
3333;SDS011;1679;50.392;8.008;2022-09-01T14:43:16;2.43;;;2.20;;
3333;SDS011;1679;50.392;8.008;2022-09-01T14:45:42;3.97;;;2.40;;
3333;SDS011;1679;50.392;8.008;2022-09-01T14:48:11;2.43;;;2.33;;
3333;SDS011;1679;50.392;8.008;2022-09-01T14:50:39;2.00;;;1.90;;
3333;SDS011;1679;50.392;8.008;2022-09-01T14:53:06;2.27;;;2.07;;
3333;SDS011;1679;50.392;8.008;2022-09-01T14:55:32;4.03;;;1.77;;
3333;SDS011;1679;50.392;8.008;2022-09-01T14:57:59;2.10;;;2.00;;
3333;SDS011;1679;50.392;8.008;2022-09-01T15:00:25;4.03;;;2.30;;
3333;SDS011;1679;50.392;8.008;2022-09-01T15:02:54;3.20;;;2.80;;
3333;SDS011;1679;50.392;8.008;2022-09-01T15:05:21;3.10;;;2.80;;
3333;SDS011;1679;50.392;8.008;2022-09-01T15:07:48;2.73;;;2.40;;
3333;SDS011;1679;50.392;8.008;2022-09-01T15:10:15;2.40;;;2.30;;
3333;SDS011;1679;50.392;8.008;2022-09-01T15:12:42;1.97;;;1.87;;
3333;SDS011;1679;50.392;8.008;2022-09-01T15:15:09;2.37;;;2.17;;
3333;SDS011;1679;50.392;8.008;2022-09-01T15:17:34;2.40;;;2.30;;
3333;SDS011;1679;50.392;8.008;2022-09-01T15:20:00;2.00;;;1.90;;
3333;SDS011;1679;50.392;8.008;2022-09-01T15:22:46;4.60;;;2.30;;
3333;SDS011;1679;50.392;8.008;2022-09-01T15:25:13;3.80;;;2.13;;
3333;SDS011;1679;50.392;8.008;2022-09-01T15:27:39;4.23;;;2.50;;
3333;SDS011;1679;50.392;8.008;2022-09-01T15:30:05;2.20;;;2.00;;
3333;SDS011;1679;50.392;8.008;2022-09-01T15:32:38;2.70;;;2.30;;
3333;SDS011;1679;50.392;8.008;2022-09-01T15:35:06;4.00;;;2.07;;
3333;SDS011;1679;50.392;8.008;2022-09-01T15:37:33;2.47;;;2.27;;
3333;SDS011;1679;50.392;8.008;2022-09-01T15:39:58;2.40;;;2.30;;
3333;SDS011;1679;50.392;8.008;2022-09-01T15:42:24;2.00;;;1.90;;
3333;SDS011;1679;50.392;8.008;2022-09-01T15:44:50;2.80;;;2.23;;
3333;SDS011;1679;50.392;8.008;2022-09-01T15:47:16;2.30;;;2.20;;
3333;SDS011;1679;50.392;8.008;2022-09-01T15:49:42;2.30;;;2.20;;
3333;SDS011;1679;50.392;8.008;2022-09-01T15:52:07;2.70;;;2.60;;
3333;SDS011;1679;50.392;8.008;2022-09-01T15:54:37;3.73;;;2.60;;
3333;SDS011;1679;50.392;8.008;2022-09-01T15:57:03;6.13;;;2.23;;
3333;SDS011;1679;50.392;8.008;2022-09-01T15:59:30;2.40;;;2.30;;
3333;SDS011;1679;50.392;8.008;2022-09-01T16:01:56;2.73;;;2.50;;
3333;SDS011;1679;50.392;8.008;2022-09-01T16:04:21;2.50;;;2.40;;
3333;SDS011;1679;50.392;8.008;2022-09-01T16:06:48;2.27;;;2.03;;
3333;SDS011;1679;50.392;8.008;2022-09-01T16:09:15;3.40;;;2.00;;
3333;SDS011;1679;50.392;8.008;2022-09-01T16:11:42;2.40;;;2.30;;
3333;SDS011;1679;50.392;8.008;2022-09-01T16:14:10;2.73;;;2.27;;
3333;SDS011;1679;50.392;8.008;2022-09-01T16:22:20;2.83;;;2.30;;
3333;SDS011;1679;50.392;8.008;2022-09-01T16:24:47;2.60;;;2.33;;
3333;SDS011;1679;50.392;8.008;2022-09-01T16:27:19;3.00;;;2.80;;
3333;SDS011;1679;50.392;8.008;2022-09-01T16:29:55;2.50;;;2.30;;
3333;SDS011;1679;50.392;8.008;2022-09-01T16:32:22;2.27;;;2.17;;
3333;SDS011;1679;50.392;8.008;2022-09-01T16:34:51;2.47;;;2.37;;
3333;SDS011;1679;50.392;8.008;2022-09-01T16:46:20;3.10;;;2.47;;
3333;SDS011;1679;50.392;8.008;2022-09-01T16:51:26;2.33;;;2.23;;